createdAt,value
2022-08-05T00:00:35.113Z,8.80
2022-08-05T00:01:36.534Z,7.30
2022-08-05T00:02:35.445Z,11.10
2022-08-05T00:03:34.549Z,11.70
2022-08-05T00:04:34.797Z,9.00
2022-08-05T00:06:04.801Z,14.70
2022-08-05T00:06:36.317Z,9.20
2022-08-05T00:07:59.887Z,11.10
2022-08-05T00:08:36.592Z,8.30
2022-08-05T00:09:35.772Z,6.30
2022-08-05T00:10:35.975Z,10.00
2022-08-05T00:11:48.534Z,10.10
2022-08-05T00:12:56.233Z,9.50
2022-08-05T00:13:39.478Z,7.00
2022-08-05T00:14:36.723Z,8.70
2022-08-05T00:15:55.374Z,8.40
2022-08-05T00:16:52.398Z,9.60
2022-08-05T00:17:38.230Z,9.30
2022-08-05T00:18:37.901Z,9.50
2022-08-05T00:19:45.709Z,7.10
2022-08-05T00:20:38.714Z,13.40
2022-08-05T00:21:37.984Z,8.30
2022-08-05T00:22:38.181Z,8.30
2022-08-05T00:23:46.060Z,9.60
2022-08-05T00:24:42.639Z,8.50
2022-08-05T00:25:45.862Z,10.40
2022-08-05T00:26:46.722Z,9.50
2022-08-05T00:27:42.789Z,8.00
2022-08-05T00:28:39.222Z,9.20
2022-08-05T00:29:39.433Z,6.50
2022-08-05T00:30:39.634Z,11.30
2022-08-05T00:31:53.190Z,7.00
2022-08-05T00:32:41.022Z,9.60
2022-08-05T00:34:56.799Z,8.80
2022-08-05T00:34:57.050Z,8.30
2022-08-05T00:35:47.843Z,6.50
2022-08-05T00:37:13.061Z,7.40
2022-08-05T00:37:52.877Z,10.10
2022-08-05T00:38:42.203Z,7.70
2022-08-05T00:39:57.092Z,8.50
2022-08-05T00:40:46.589Z,11.80
2022-08-05T00:41:55.445Z,9.20
2022-08-05T00:42:42.975Z,10.20
2022-08-05T00:43:47.133Z,7.80
2022-08-05T00:44:43.290Z,7.60
2022-08-05T00:45:43.646Z,8.70
2022-08-05T00:46:43.739Z,8.00
2022-08-05T00:47:56.494Z,7.60
2022-08-05T00:48:50.761Z,8.50
2022-08-05T00:49:51.020Z,8.90
2022-08-05T00:50:46.126Z,7.20
2022-08-05T00:51:50.978Z,10.60
2022-08-05T00:52:45.543Z,8.40
2022-08-05T00:54:01.218Z,7.00
2022-08-05T00:54:45.164Z,9.20
2022-08-05T00:55:44.370Z,6.40
2022-08-05T00:56:51.278Z,13.20
2022-08-05T00:57:57.868Z,8.50
2022-08-05T00:58:45.859Z,8.80
2022-08-05T00:59:45.093Z,9.60
2022-08-05T01:00:45.387Z,6.50
2022-08-05T01:01:48.695Z,9.80
2022-08-05T01:02:45.704Z,7.70
2022-08-05T01:03:45.915Z,6.20
2022-08-05T01:04:46.124Z,13.10
2022-08-05T01:05:46.284Z,20.70
2022-08-05T01:06:47.897Z,17.90
2022-08-05T01:08:30.393Z,18.10
2022-08-05T01:08:47.899Z,20.40
2022-08-05T01:09:47.110Z,18.00
2022-08-05T01:10:52.229Z,23.60
2022-08-05T01:11:47.443Z,22.30
2022-08-05T01:13:05.242Z,20.50
2022-08-05T01:13:58.316Z,19.10
2022-08-05T01:14:48.886Z,18.60
2022-08-05T01:15:48.149Z,19.00
2022-08-05T01:16:48.256Z,29.60
2022-08-05T01:17:53.727Z,22.40
2022-08-05T01:18:50.932Z,23.50
2022-08-05T01:20:00.755Z,22.60
2022-08-05T01:20:50.039Z,25.20
2022-08-05T01:21:50.785Z,24.60
2022-08-05T01:22:49.739Z,25.40
2022-08-05T01:23:53.011Z,24.50
2022-08-05T01:24:49.861Z,24.50
2022-08-05T01:25:53.279Z,21.30
2022-08-05T01:26:50.234Z,19.80
2022-08-05T01:27:55.125Z,19.80
2022-08-05T01:28:51.654Z,15.50
2022-08-05T01:29:51.810Z,19.00
2022-08-05T01:30:53.710Z,18.00
2022-08-05T01:31:51.297Z,16.60
2022-08-05T01:32:51.489Z,17.30
2022-08-05T01:33:53.545Z,18.90
2022-08-05T01:34:51.883Z,17.20
2022-08-05T01:35:53.427Z,14.70
2022-08-05T01:36:52.253Z,15.10
2022-08-05T01:37:52.466Z,15.80
2022-08-05T01:38:52.679Z,18.00
2022-08-05T01:39:52.811Z,18.40
2022-08-05T01:40:53.051Z,15.60
2022-08-05T01:41:53.239Z,17.60
2022-08-05T01:42:53.422Z,15.10
2022-08-05T01:43:53.617Z,21.10
2022-08-05T01:44:54.569Z,16.00
2022-08-05T01:45:55.273Z,15.80
2022-08-05T01:46:54.211Z,17.00
2022-08-05T01:47:55.522Z,17.90
2022-08-05T01:48:54.614Z,14.50
2022-08-05T01:50:01.704Z,17.60
2022-08-05T01:50:55.976Z,13.00
2022-08-05T01:51:55.186Z,18.10
2022-08-05T01:52:55.384Z,13.00
2022-08-05T01:53:58.736Z,15.20
2022-08-05T01:54:55.781Z,21.40
2022-08-05T01:55:55.984Z,13.50
2022-08-05T01:58:11.073Z,18.00
2022-08-05T01:58:11.257Z,11.50
2022-08-05T01:58:57.514Z,10.20
2022-08-05T01:59:56.722Z,12.70
2022-08-05T02:00:56.952Z,16.50
2022-08-05T02:01:57.758Z,12.10
2022-08-05T02:02:57.375Z,15.80
2022-08-05T02:03:57.638Z,24.30
2022-08-05T02:04:57.834Z,19.90
2022-08-05T02:06:00.871Z,13.10
2022-08-05T02:06:58.220Z,20.90
2022-08-05T02:08:01.305Z,12.70
2022-08-05T02:08:59.349Z,12.20
2022-08-05T02:09:58.922Z,13.70
2022-08-05T02:10:59.165Z,17.30
2022-08-05T02:11:59.376Z,17.00
2022-08-05T02:12:59.588Z,12.40
2022-08-05T02:13:59.807Z,14.70
2022-08-05T02:15:00.011Z,18.20
2022-08-05T02:16:00.238Z,16.50
2022-08-05T02:17:00.443Z,12.20
2022-08-05T02:18:28.451Z,13.40
2022-08-05T02:19:01.803Z,11.60
2022-08-05T02:20:01.954Z,14.70
2022-08-05T02:21:01.165Z,18.20
2022-08-05T02:22:01.377Z,13.00
2022-08-05T02:23:01.619Z,11.70
2022-08-05T02:24:01.797Z,11.30
2022-08-05T02:25:02.034Z,14.80
2022-08-05T02:26:02.168Z,7.60
2022-08-05T02:27:10.280Z,14.40
2022-08-05T02:28:08.864Z,13.90
2022-08-05T02:29:04.019Z,10.00
2022-08-05T02:30:03.062Z,10.40
2022-08-05T02:31:04.130Z,13.00
2022-08-05T02:32:04.695Z,10.10
2022-08-05T02:33:03.726Z,14.00
2022-08-05T02:34:03.928Z,11.40
2022-08-05T02:35:09.602Z,9.50
2022-08-05T02:36:05.412Z,13.10
2022-08-05T02:37:04.622Z,14.70
2022-08-05T02:38:04.840Z,14.40
2022-08-05T02:39:05.078Z,10.60
2022-08-05T02:40:05.222Z,15.20
2022-08-05T02:41:14.448Z,13.00
2022-08-05T02:42:06.643Z,11.40
2022-08-05T02:43:07.154Z,12.60
2022-08-05T02:44:13.021Z,12.40
2022-08-05T02:45:07.172Z,7.80
2022-08-05T02:46:06.383Z,15.60
2022-08-05T02:47:06.606Z,11.00
2022-08-05T02:48:12.328Z,12.20
2022-08-05T02:49:11.078Z,9.40
2022-08-05T02:50:07.270Z,12.00
2022-08-05T02:51:07.372Z,8.60
2022-08-05T02:52:07.804Z,8.60
2022-08-05T02:53:11.776Z,10.70
2022-08-05T02:54:08.972Z,11.90
2022-08-05T02:55:10.951Z,15.90
2022-08-05T02:56:08.381Z,19.00
2022-08-05T02:57:10.247Z,11.60
2022-08-05T02:58:13.235Z,16.40
2022-08-05T02:59:09.068Z,14.30
2022-08-05T03:00:09.273Z,12.30
2022-08-05T03:01:09.605Z,14.40
2022-08-05T03:02:09.761Z,11.00
2022-08-05T03:03:10.527Z,8.30
2022-08-05T03:04:14.052Z,10.20
2022-08-05T03:05:10.467Z,10.50
2022-08-05T03:06:56.649Z,11.20
2022-08-05T03:07:17.603Z,10.30
2022-08-05T03:08:12.414Z,11.60
2022-08-05T03:09:11.298Z,10.40
2022-08-05T03:10:13.400Z,9.80
2022-08-05T03:11:57.028Z,10.80
2022-08-05T03:12:12.922Z,9.50
2022-08-05T03:13:16.705Z,10.40
2022-08-05T03:14:13.394Z,12.40
2022-08-05T03:15:12.644Z,13.10
2022-08-05T03:16:12.842Z,7.00
2022-08-05T03:17:13.083Z,8.60
2022-08-05T03:18:13.295Z,8.00
2022-08-05T03:19:20.375Z,10.50
2022-08-05T03:20:14.695Z,9.20
2022-08-05T03:21:13.953Z,13.00
2022-08-05T03:22:16.752Z,16.50
2022-08-05T03:23:14.469Z,13.50
2022-08-05T03:24:14.721Z,13.70
2022-08-05T03:25:32.657Z,10.40
2022-08-05T03:26:31.700Z,8.30
2022-08-05T03:27:16.290Z,9.90
2022-08-05T03:28:18.831Z,14.60
2022-08-05T03:29:17.275Z,8.40
2022-08-05T03:30:33.319Z,10.00
2022-08-05T03:31:25.851Z,11.40
2022-08-05T03:32:17.235Z,8.90
2022-08-05T03:33:16.507Z,7.80
2022-08-05T03:34:16.718Z,9.10
2022-08-05T03:35:16.945Z,7.70
2022-08-05T03:36:17.105Z,10.70
2022-08-05T03:37:18.301Z,9.60
2022-08-05T03:38:17.484Z,10.70
2022-08-05T03:39:20.341Z,10.80
2022-08-05T03:40:24.375Z,7.70
2022-08-05T03:41:19.306Z,16.40
2022-08-05T03:42:18.506Z,14.00
2022-08-05T03:44:09.597Z,7.00
2022-08-05T03:44:20.222Z,8.00
2022-08-05T03:45:22.561Z,13.40
2022-08-05T03:46:19.277Z,10.10
2022-08-05T03:47:19.522Z,9.20
2022-08-05T03:48:21.894Z,9.90
2022-08-05T03:49:19.932Z,9.10
2022-08-05T03:50:20.107Z,9.00
2022-08-05T03:52:36.872Z,12.70
2022-08-05T03:52:38.087Z,8.00
2022-08-05T03:55:53.611Z,8.30
2022-08-05T03:55:53.956Z,11.80
2022-08-05T03:56:05.518Z,12.10
2022-08-05T03:56:33.145Z,7.20
2022-08-05T03:57:22.572Z,10.50
2022-08-05T03:58:22.730Z,11.10
2022-08-05T03:59:23.009Z,14.10
2022-08-05T04:00:22.193Z,6.70
2022-08-05T04:01:22.424Z,10.20
2022-08-05T04:02:38.615Z,10.10
2022-08-05T04:03:28.488Z,11.20
2022-08-05T04:04:26.528Z,12.10
2022-08-05T04:05:23.225Z,11.50
2022-08-05T04:06:23.286Z,11.00
2022-08-05T04:07:24.923Z,9.30
2022-08-05T04:08:35.184Z,12.60
2022-08-05T04:09:26.347Z,5.60
2022-08-05T04:10:24.107Z,12.40
2022-08-05T04:11:24.384Z,12.90
2022-08-05T04:12:25.545Z,11.70
2022-08-05T04:13:24.769Z,13.80
2022-08-05T04:14:30.421Z,11.00
2022-08-05T04:15:26.113Z,10.80
2022-08-05T04:16:32.488Z,10.90
2022-08-05T04:17:26.670Z,13.30
2022-08-05T04:18:26.915Z,9.70
2022-08-05T04:19:26.124Z,8.10
2022-08-05T04:20:26.318Z,9.90
2022-08-05T04:22:08.748Z,13.40
2022-08-05T04:22:27.706Z,10.70
2022-08-05T04:24:06.045Z,8.30
2022-08-05T04:24:28.095Z,15.00
2022-08-05T04:25:56.737Z,9.30
2022-08-05T04:26:32.522Z,12.70
2022-08-05T04:27:28.178Z,26.60
2022-08-05T04:28:30.779Z,13.50
2022-08-05T04:29:28.095Z,18.60
2022-08-05T04:30:28.273Z,11.60
2022-08-05T04:31:34.790Z,19.30
2022-08-05T04:32:31.213Z,21.40
2022-08-05T04:33:54.561Z,14.20
2022-08-05T04:34:32.576Z,20.50
2022-08-05T04:36:11.255Z,18.30
2022-08-05T04:36:49.808Z,17.30
2022-08-05T04:38:01.125Z,13.10
2022-08-05T04:38:39.498Z,22.30
2022-08-05T04:39:31.316Z,17.70
2022-08-05T04:40:30.281Z,15.30
2022-08-05T04:41:37.089Z,17.00
2022-08-05T04:42:31.656Z,13.10
2022-08-05T04:43:30.860Z,10.40
2022-08-05T04:44:31.089Z,9.00
2022-08-05T04:45:48.482Z,9.90
2022-08-05T04:46:32.455Z,7.20
2022-08-05T04:47:38.448Z,10.70
2022-08-05T04:48:32.826Z,15.20
2022-08-05T04:50:02.188Z,9.60
2022-08-05T04:50:37.193Z,8.30
2022-08-05T04:51:32.406Z,7.50
2022-08-05T04:52:34.105Z,16.10
2022-08-05T04:53:33.675Z,10.20
2022-08-05T04:54:32.976Z,12.20
2022-08-05T04:55:39.821Z,11.60
2022-08-05T04:56:37.002Z,12.70
2022-08-05T04:57:37.163Z,16.30
2022-08-05T04:58:33.787Z,12.10
2022-08-05T04:59:38.861Z,13.90
2022-08-05T05:00:35.145Z,19.90
2022-08-05T05:02:06.057Z,12.20
2022-08-05T05:02:41.853Z,11.80
2022-08-05T05:03:41.828Z,10.30
2022-08-05T05:04:35.787Z,14.60
2022-08-05T05:05:34.952Z,13.60
2022-08-05T05:06:40.929Z,7.50
2022-08-05T05:07:36.714Z,15.00
2022-08-05T05:08:36.430Z,7.70
2022-08-05T05:09:37.494Z,9.20
2022-08-05T05:10:35.847Z,13.10
2022-08-05T05:11:41.578Z,12.20
2022-08-05T05:12:37.222Z,11.50
2022-08-05T05:13:43.527Z,14.80
2022-08-05T05:14:37.583Z,15.20
2022-08-05T05:15:57.396Z,10.80
2022-08-05T05:16:37.934Z,12.30
2022-08-05T05:17:55.521Z,9.60
2022-08-05T05:18:38.336Z,6.60
2022-08-05T05:19:47.535Z,6.50
2022-08-05T05:20:38.695Z,11.60
2022-08-05T05:21:37.883Z,9.80
2022-08-05T05:22:40.870Z,11.20
2022-08-05T05:24:03.975Z,9.40
2022-08-05T05:24:57.758Z,9.70
2022-08-05T05:25:41.055Z,12.80
2022-08-05T05:26:39.713Z,8.90
2022-08-05T05:27:45.168Z,11.90
2022-08-05T05:28:42.899Z,14.60
2022-08-05T05:30:03.347Z,10.50
2022-08-05T05:30:40.496Z,8.30
2022-08-05T05:32:12.833Z,12.40
2022-08-05T05:33:17.143Z,11.40
2022-08-05T05:34:14.133Z,14.60
2022-08-05T05:35:13.255Z,13.80
2022-08-05T05:36:14.648Z,12.30
2022-08-05T05:37:13.531Z,10.70
2022-08-05T05:38:14.304Z,14.60
2022-08-05T05:39:13.930Z,12.10
2022-08-05T05:40:14.087Z,12.20
2022-08-05T05:41:14.191Z,11.50
2022-08-05T05:42:14.341Z,9.90
2022-08-05T05:43:14.530Z,8.00
2022-08-05T05:44:36.870Z,12.90
2022-08-05T05:45:15.771Z,9.80
2022-08-05T05:46:17.685Z,10.80
2022-08-05T05:47:21.619Z,10.80
2022-08-05T05:48:16.321Z,6.60
2022-08-05T05:49:22.988Z,8.10
2022-08-05T05:50:16.481Z,11.10
2022-08-05T05:51:16.165Z,12.80
2022-08-05T05:52:26.484Z,13.20
2022-08-05T05:53:21.350Z,11.90
2022-08-05T05:54:17.100Z,11.80
2022-08-05T05:55:16.241Z,11.60
2022-08-05T05:56:16.410Z,7.60
2022-08-05T05:57:19.237Z,12.00
2022-08-05T05:58:16.649Z,15.90
2022-08-05T05:59:16.827Z,11.80
2022-08-05T06:00:16.989Z,14.60
2022-08-05T06:01:17.151Z,14.40
2022-08-05T06:02:32.337Z,11.70
2022-08-05T06:03:40.868Z,13.20
2022-08-05T06:04:18.615Z,10.30
2022-08-05T06:05:17.661Z,9.70
2022-08-05T06:06:17.743Z,13.30
2022-08-05T06:07:17.941Z,9.20
2022-08-05T06:08:31.518Z,11.80
2022-08-05T06:09:27.452Z,16.00
2022-08-05T06:10:19.376Z,8.80
2022-08-05T06:11:18.536Z,8.90
2022-08-05T06:12:18.736Z,9.00
2022-08-05T06:13:18.867Z,9.00
2022-08-05T06:14:19.042Z,11.90
2022-08-05T06:15:23.976Z,7.60
2022-08-05T06:16:28.926Z,13.10
2022-08-05T06:17:32.039Z,11.90
2022-08-05T06:18:20.665Z,10.70
2022-08-05T06:19:33.915Z,9.90
2022-08-05T06:20:21.706Z,9.20
2022-08-05T06:21:19.999Z,14.70
2022-08-05T06:22:20.167Z,6.00
2022-08-05T06:23:20.291Z,9.40
2022-08-05T06:24:25.619Z,9.40
2022-08-05T06:25:25.119Z,11.20
2022-08-05T06:26:25.008Z,9.50
2022-08-05T06:28:10.447Z,6.00
2022-08-05T06:28:22.175Z,11.60
2022-08-05T06:29:25.126Z,7.30
2022-08-05T06:30:22.312Z,11.50
2022-08-05T06:31:22.291Z,7.40
2022-08-05T06:32:28.712Z,12.70
2022-08-05T06:33:33.137Z,10.70
2022-08-05T06:34:22.809Z,12.50
2022-08-05T06:36:07.469Z,6.50
2022-08-05T06:36:26.041Z,7.90
2022-08-05T06:37:58.038Z,7.20
2022-08-05T06:38:35.942Z,11.10
2022-08-05T06:39:26.880Z,9.10
2022-08-05T06:40:27.955Z,9.60
2022-08-05T06:41:23.936Z,7.50
2022-08-05T06:42:23.122Z,8.20
2022-08-05T06:43:58.328Z,6.70
2022-08-05T06:44:24.348Z,7.40
2022-08-05T06:45:44.925Z,9.30
2022-08-05T06:46:30.430Z,10.90
2022-08-05T06:48:12.496Z,9.10
2022-08-05T06:48:50.122Z,12.60
2022-08-05T06:50:01.759Z,12.50
2022-08-05T06:50:25.063Z,10.10
2022-08-05T06:51:30.077Z,11.30
2022-08-05T06:52:37.427Z,11.40
2022-08-05T06:53:27.883Z,9.50
2022-08-05T06:54:25.941Z,8.40
2022-08-05T06:55:24.822Z,10.10
2022-08-05T06:56:26.292Z,7.10
2022-08-05T06:57:57.981Z,6.70
2022-08-05T06:58:34.733Z,6.80
2022-08-05T06:59:26.400Z,8.00
2022-08-05T07:00:25.665Z,7.90
2022-08-05T07:01:27.671Z,9.40
2022-08-05T07:02:26.782Z,5.10
2022-08-05T07:03:32.767Z,7.30
2022-08-05T07:04:27.038Z,6.70
2022-08-05T07:05:37.741Z,11.50
2022-08-05T07:06:28.432Z,9.30
2022-08-05T07:07:35.482Z,4.50
2022-08-05T07:08:27.619Z,6.10
2022-08-05T07:09:26.778Z,5.00
2022-08-05T07:10:32.209Z,6.80
2022-08-05T07:11:27.974Z,7.80
2022-08-05T07:12:27.120Z,5.20
2022-08-05T07:13:56.622Z,6.20
2022-08-05T07:14:29.631Z,6.40
2022-08-05T07:15:34.538Z,6.50
2022-08-05T07:17:56.611Z,8.60
2022-08-05T07:18:02.047Z,12.40
2022-08-05T07:18:30.067Z,8.30
2022-08-05T07:20:10.579Z,8.40
2022-08-05T07:20:33.802Z,7.70
2022-08-05T07:21:29.054Z,9.90
2022-08-05T07:22:30.020Z,5.60
2022-08-05T07:23:29.729Z,6.70
2022-08-05T07:24:28.741Z,11.20
2022-08-05T07:25:55.707Z,6.60
2022-08-05T07:26:29.739Z,9.60
2022-08-05T07:28:00.670Z,6.60
2022-08-05T07:28:29.981Z,8.10
2022-08-05T07:30:22.082Z,10.70
2022-08-05T07:30:32.447Z,10.90
2022-08-05T07:31:40.746Z,4.80
2022-08-05T07:32:30.498Z,6.80
2022-08-05T07:33:36.802Z,6.90
2022-08-05T07:34:30.785Z,8.70
2022-08-05T07:36:03.728Z,8.30
2022-08-05T07:36:31.020Z,6.50
2022-08-05T07:37:37.625Z,9.80
2022-08-05T07:38:33.803Z,11.80
2022-08-05T07:40:04.339Z,8.00
2022-08-05T07:40:33.253Z,6.30
2022-08-05T07:42:07.652Z,7.00
2022-08-05T07:42:33.975Z,4.70
2022-08-05T07:43:30.861Z,8.50
2022-08-05T07:44:31.022Z,5.60
2022-08-05T07:45:56.437Z,9.60
2022-08-05T07:46:32.329Z,7.50
2022-08-05T07:47:42.402Z,9.20
2022-08-05T07:49:02.810Z,8.40
2022-08-05T07:49:32.744Z,9.60
2022-08-05T07:50:33.623Z,9.00
2022-08-05T07:51:37.215Z,9.80
2022-08-05T07:52:33.097Z,8.60
2022-08-05T07:53:37.002Z,9.30
2022-08-05T07:54:41.271Z,9.80
2022-08-05T07:55:57.196Z,6.50
2022-08-05T07:57:00.286Z,7.40
2022-08-05T07:57:52.300Z,7.30
2022-08-05T07:58:58.644Z,6.80
2022-08-05T07:59:40.198Z,10.10
2022-08-05T08:00:34.174Z,8.20
2022-08-05T08:01:33.366Z,12.90
2022-08-05T08:03:14.744Z,6.40
2022-08-05T08:03:44.446Z,8.00
2022-08-05T08:04:38.076Z,7.70
2022-08-05T08:05:33.913Z,12.80
2022-08-05T08:06:35.017Z,10.60
2022-08-05T08:07:39.668Z,7.40
2022-08-05T08:08:35.319Z,9.90
2022-08-05T08:09:34.497Z,10.70
2022-08-05T08:10:34.667Z,6.40
2022-08-05T08:11:48.296Z,8.20
2022-08-05T08:12:49.248Z,9.60
2022-08-05T08:13:49.255Z,8.90
2022-08-05T08:14:36.117Z,13.40
2022-08-05T08:16:33.967Z,12.30
2022-08-05T08:16:50.092Z,10.30
2022-08-05T08:17:36.546Z,9.40
2022-08-05T08:18:35.674Z,7.70
2022-08-05T08:20:21.308Z,12.50
2022-08-05T08:21:00.009Z,8.90
2022-08-05T08:21:37.126Z,10.00
2022-08-05T08:22:36.262Z,9.90
2022-08-05T08:24:03.100Z,8.50
2022-08-05T08:24:51.753Z,8.50
2022-08-05T08:26:02.817Z,13.90
2022-08-05T08:26:37.796Z,11.10
2022-08-05T08:27:44.981Z,8.60
2022-08-05T08:28:59.213Z,10.40
2022-08-05T08:30:03.833Z,7.10
2022-08-05T08:30:47.705Z,10.20
2022-08-05T08:31:38.341Z,9.10
2022-08-05T08:32:41.702Z,14.60
2022-08-05T08:33:38.554Z,10.20
2022-08-05T08:34:37.846Z,9.70
2022-08-05T08:35:41.256Z,8.90
2022-08-05T08:36:52.485Z,10.60
2022-08-05T08:37:39.305Z,6.50
2022-08-05T08:38:39.416Z,10.90
2022-08-05T08:39:38.583Z,15.20
2022-08-05T08:40:39.716Z,6.10
2022-08-05T08:41:51.783Z,8.60
2022-08-05T08:42:50.368Z,7.60
2022-08-05T08:45:18.094Z,6.20
2022-08-05T08:45:23.752Z,11.70
2022-08-05T08:45:40.389Z,8.10
2022-08-05T08:46:39.548Z,14.50
2022-08-05T08:48:05.947Z,7.40
2022-08-05T08:48:59.678Z,9.30
2022-08-05T08:50:14.573Z,8.00
2022-08-05T08:51:21.987Z,9.50
2022-08-05T08:52:04.128Z,8.90
2022-08-05T08:52:41.385Z,8.90
2022-08-05T08:53:45.091Z,9.50
2022-08-05T08:54:42.266Z,14.20
2022-08-05T08:56:03.202Z,11.50
2022-08-05T08:56:47.899Z,11.10
2022-08-05T08:57:48.403Z,11.30
2022-08-05T08:58:44.649Z,7.90
2022-08-05T08:59:47.053Z,6.40
2022-08-05T09:00:42.672Z,16.20
2022-08-05T09:01:42.725Z,11.10
2022-08-05T09:02:41.898Z,11.50
2022-08-05T09:03:45.353Z,7.20
2022-08-05T09:04:58.435Z,8.90
2022-08-05T09:06:09.234Z,11.90
2022-08-05T09:06:43.507Z,13.70
2022-08-05T09:07:57.459Z,6.70
2022-08-05T09:08:43.736Z,11.30
2022-08-05T09:09:42.866Z,7.50
2022-08-05T09:10:43.009Z,12.00
2022-08-05T09:11:50.854Z,11.30
2022-08-05T09:12:44.287Z,8.20
2022-08-05T09:14:01.233Z,8.60
2022-08-05T09:14:58.480Z,7.70
2022-08-05T09:15:44.666Z,8.70
2022-08-05T09:16:48.598Z,7.60
2022-08-05T09:17:49.583Z,5.80
2022-08-05T09:18:45.060Z,6.10
2022-08-05T09:20:01.541Z,8.00
2022-08-05T09:20:45.352Z,8.00
2022-08-05T09:22:18.489Z,6.60
2022-08-05T09:22:51.695Z,9.70
2022-08-05T09:23:45.888Z,8.10
2022-08-05T09:24:45.058Z,6.60
2022-08-05T09:26:01.795Z,10.10
2022-08-05T09:26:46.335Z,7.70
2022-08-05T09:28:04.744Z,6.40
2022-08-05T09:28:46.566Z,7.30
2022-08-05T09:29:48.043Z,6.30
2022-08-05T09:30:52.884Z,9.80
2022-08-05T09:32:41.003Z,6.90
2022-08-05T09:32:48.806Z,6.90
2022-08-05T09:33:46.239Z,5.30
2022-08-05T09:34:46.335Z,7.90
2022-08-05T09:35:46.510Z,5.50
2022-08-05T09:36:55.615Z,5.00
2022-08-05T09:38:16.366Z,6.10
2022-08-05T09:38:47.871Z,5.90
2022-08-05T09:39:52.342Z,5.20
2022-08-05T09:40:52.721Z,8.10
2022-08-05T09:41:56.126Z,7.20
2022-08-05T09:42:48.481Z,7.70
2022-08-05T09:43:49.439Z,5.90
2022-08-05T09:44:50.415Z,10.50
2022-08-05T09:46:06.225Z,7.80
2022-08-05T09:46:53.495Z,8.90
2022-08-05T09:47:56.576Z,8.30
2022-08-05T09:48:55.430Z,9.40
2022-08-05T09:50:00.823Z,9.90
2022-08-05T09:50:49.229Z,7.50
2022-08-05T09:51:49.583Z,10.70
2022-08-05T09:52:52.788Z,6.60
2022-08-05T09:53:54.733Z,10.40
2022-08-05T09:54:49.801Z,9.30
2022-08-05T09:55:56.774Z,7.10
2022-08-05T09:56:52.373Z,8.80
2022-08-05T09:57:49.272Z,6.80
2022-08-05T09:58:50.407Z,11.30
2022-08-05T09:59:49.585Z,9.60
2022-08-05T10:00:49.671Z,10.60
2022-08-05T10:01:57.841Z,12.40
2022-08-05T10:02:50.990Z,10.70
2022-08-05T10:03:58.793Z,8.70
2022-08-05T10:04:51.270Z,8.10
2022-08-05T10:05:50.427Z,5.60
2022-08-05T10:06:58.720Z,9.60
2022-08-05T10:08:35.113Z,5.40
2022-08-05T10:08:53.911Z,5.20
2022-08-05T10:10:13.806Z,6.10
2022-08-05T10:10:54.099Z,6.50
2022-08-05T10:11:51.305Z,7.20
2022-08-05T10:12:51.478Z,6.30
2022-08-05T10:13:54.617Z,11.60
2022-08-05T10:14:54.391Z,8.90
2022-08-05T10:15:51.991Z,6.50
2022-08-05T10:16:52.988Z,6.90
2022-08-05T10:17:56.866Z,6.90
2022-08-05T10:18:53.470Z,6.50
2022-08-05T10:20:04.181Z,8.90
2022-08-05T10:20:53.750Z,8.80
2022-08-05T10:21:52.915Z,6.40
2022-08-05T10:22:53.091Z,6.80
2022-08-05T10:23:59.987Z,8.20
2022-08-05T10:24:54.360Z,4.30
2022-08-05T10:25:53.521Z,12.60
2022-08-05T10:26:53.736Z,11.90
2022-08-05T10:28:16.789Z,5.00
2022-08-05T10:28:56.545Z,7.50
2022-08-05T10:30:06.403Z,6.80
2022-08-05T10:32:53.603Z,9.70
2022-08-05T10:32:54.721Z,6.80
2022-08-05T10:33:01.214Z,9.20
2022-08-05T10:33:55.579Z,6.10
2022-08-05T10:34:54.753Z,7.60
2022-08-05T10:35:59.891Z,10.00
2022-08-05T10:36:56.008Z,8.40
2022-08-05T10:37:55.177Z,4.70
2022-08-05T10:38:55.418Z,7.50
2022-08-05T10:40:03.911Z,5.60
2022-08-05T10:40:58.215Z,7.50
2022-08-05T10:42:00.565Z,6.20
2022-08-05T10:42:57.006Z,6.40
2022-08-05T10:43:56.191Z,10.00
2022-08-05T10:44:56.352Z,4.90
2022-08-05T10:45:56.547Z,8.60
2022-08-05T10:46:57.679Z,8.20
2022-08-05T10:48:31.550Z,8.30
2022-08-05T10:49:01.522Z,6.20
2022-08-05T10:50:20.668Z,7.40
2022-08-05T10:50:58.304Z,6.70
2022-08-05T10:52:00.527Z,8.30
2022-08-05T10:52:58.955Z,8.60
2022-08-05T10:53:58.518Z,6.60
2022-08-05T10:54:58.021Z,5.70
2022-08-05T10:56:05.254Z,10.80
2022-08-05T10:56:59.326Z,7.70
2022-08-05T10:57:58.494Z,4.10
2022-08-05T10:58:58.698Z,6.50
2022-08-05T11:00:02.606Z,5.90
2022-08-05T11:01:02.687Z,7.50
2022-08-05T11:02:04.577Z,6.00
2022-08-05T11:03:24.233Z,8.80
2022-08-05T11:04:00.326Z,5.30
2022-08-05T11:04:59.471Z,8.70
2022-08-05T11:05:59.623Z,6.50
2022-08-05T11:06:59.753Z,6.80
2022-08-05T11:08:02.378Z,8.70
2022-08-05T11:09:01.077Z,6.00
2022-08-05T11:10:04.069Z,6.90
2022-08-05T11:11:07.739Z,6.80
2022-08-05T11:12:01.407Z,4.60
2022-08-05T11:13:01.351Z,7.30
2022-08-05T11:14:00.653Z,7.60
2022-08-05T11:15:01.424Z,7.20
2022-08-05T11:16:01.930Z,5.80
2022-08-05T11:17:14.090Z,4.90
2022-08-05T11:18:03.929Z,4.30
2022-08-05T11:19:01.384Z,5.10
2022-08-05T11:20:17.375Z,5.50
2022-08-05T11:21:02.540Z,9.10
2022-08-05T11:22:01.667Z,6.70
2022-08-05T11:23:05.899Z,7.70
2022-08-05T11:24:14.757Z,7.80
2022-08-05T11:26:02.960Z,6.60
2022-08-05T11:26:08.469Z,3.80
2022-08-05T11:27:03.087Z,5.50
2022-08-05T11:28:02.131Z,7.00
2022-08-05T11:29:06.937Z,5.40
2022-08-05T11:30:03.258Z,4.20
2022-08-05T11:31:02.339Z,5.00
2022-08-05T11:32:02.396Z,6.90
2022-08-05T11:33:02.484Z,6.60
2022-08-05T11:34:02.522Z,6.10
2022-08-05T11:35:02.649Z,4.70
2022-08-05T11:36:08.133Z,5.60
2022-08-05T11:37:55.151Z,6.80
2022-08-05T11:38:29.157Z,4.00
2022-08-05T11:39:03.907Z,6.60
2022-08-05T11:40:04.620Z,2.60
2022-08-05T11:41:35.061Z,4.80
2022-08-05T11:42:04.661Z,9.00
2022-08-05T11:43:03.115Z,4.20
2022-08-05T11:44:07.378Z,8.10
2022-08-05T11:45:05.313Z,5.00
2022-08-05T11:46:27.153Z,5.00
2022-08-05T11:47:11.777Z,4.50
2022-08-05T11:48:04.356Z,4.30
2022-08-05T11:49:03.415Z,8.10
2022-08-05T11:50:03.479Z,4.70
2022-08-05T11:51:03.601Z,5.30
2022-08-05T11:52:11.314Z,3.50
2022-08-05T11:53:04.703Z,6.20
2022-08-05T11:54:04.793Z,7.00
2022-08-05T11:55:07.409Z,3.90
2022-08-05T11:56:03.867Z,5.30
2022-08-05T11:57:08.338Z,4.90
2022-08-05T11:58:10.116Z,7.00
2022-08-05T11:59:05.007Z,5.20
2022-08-05T12:00:05.017Z,4.50
2022-08-05T12:01:04.587Z,6.40
2022-08-05T12:02:04.118Z,5.40
2022-08-05T12:03:04.277Z,6.50
2022-08-05T12:04:04.287Z,3.20
2022-08-05T12:05:06.793Z,5.40
2022-08-05T12:06:06.686Z,3.30
2022-08-05T12:07:05.346Z,3.50
2022-08-05T12:08:09.917Z,4.30
2022-08-05T12:09:05.452Z,5.00
2022-08-05T12:10:09.223Z,2.90
2022-08-05T12:11:06.368Z,4.40
2022-08-05T12:12:04.608Z,4.10
2022-08-05T12:13:04.673Z,5.00
2022-08-05T12:14:05.668Z,3.40
2022-08-05T12:15:04.714Z,4.60
2022-08-05T12:16:04.734Z,4.90
2022-08-05T12:18:00.695Z,5.20
2022-08-05T12:18:10.776Z,3.60
2022-08-05T12:19:05.759Z,3.20
2022-08-05T12:20:27.889Z,4.80
2022-08-05T12:21:05.828Z,4.70
2022-08-05T12:22:04.883Z,5.90
2022-08-05T12:23:04.977Z,4.00
2022-08-05T12:24:06.994Z,5.90
2022-08-05T12:25:05.032Z,3.50
2022-08-05T12:26:05.093Z,4.10
2022-08-05T12:27:09.883Z,5.20
2022-08-05T12:28:06.144Z,5.50
2022-08-05T12:29:05.198Z,4.00
2022-08-05T12:30:05.218Z,6.50
2022-08-05T12:31:05.283Z,5.80
2022-08-05T12:32:05.344Z,5.40
2022-08-05T12:33:07.109Z,5.60
2022-08-05T12:34:06.464Z,6.40
2022-08-05T12:35:05.499Z,5.00
2022-08-05T12:36:07.046Z,5.00
2022-08-05T12:37:05.627Z,5.80
2022-08-05T12:38:05.698Z,4.40
2022-08-05T12:39:05.768Z,3.80
2022-08-05T12:40:10.838Z,7.80
2022-08-05T12:41:12.507Z,8.80
2022-08-05T12:42:08.461Z,8.50
2022-08-05T12:43:06.018Z,9.90
2022-08-05T12:44:06.091Z,6.80
2022-08-05T12:45:08.758Z,6.30
2022-08-05T12:46:06.231Z,8.00
2022-08-05T12:47:06.312Z,7.90
2022-08-05T12:48:17.283Z,6.20
2022-08-05T12:49:13.449Z,9.20
2022-08-05T12:50:07.470Z,8.80
2022-08-05T12:51:06.441Z,10.80
2022-08-05T12:52:13.976Z,7.80
2022-08-05T12:53:07.493Z,6.40
2022-08-05T12:54:16.910Z,8.00
2022-08-05T12:55:07.541Z,9.00
2022-08-05T12:56:06.567Z,7.80
2022-08-05T12:57:18.005Z,6.80
2022-08-05T12:58:49.789Z,7.50
2022-08-05T12:59:13.848Z,5.60
2022-08-05T13:02:02.434Z,6.20
2022-08-05T13:02:03.553Z,7.00
2022-08-05T13:02:09.960Z,5.00
2022-08-05T13:03:06.953Z,6.10
2022-08-05T13:04:09.633Z,5.10
2022-08-05T13:05:06.980Z,6.00
2022-08-05T13:06:07.053Z,7.10
2022-08-05T13:07:10.394Z,4.00
2022-08-05T13:08:08.732Z,6.80
2022-08-05T13:09:07.193Z,4.90
2022-08-05T13:10:07.315Z,4.60